createdAt,value
2023-04-15T00:01:05.960Z,12.17
2023-04-15T00:03:58.308Z,12.16
2023-04-15T00:06:32.618Z,12.13
2023-04-15T00:09:25.411Z,12.10
2023-04-15T00:12:17.483Z,12.04
2023-04-15T00:14:52.158Z,11.99
2023-04-15T00:17:44.222Z,11.93
2023-04-15T00:20:37.003Z,11.91
2023-04-15T00:23:18.003Z,11.87
2023-04-15T00:26:10.002Z,11.82
2023-04-15T00:29:02.414Z,11.79
2023-04-15T00:31:54.615Z,11.76
2023-04-15T00:34:47.210Z,11.76
2023-04-15T00:37:39.324Z,11.74
2023-04-15T00:40:31.403Z,11.72
2023-04-15T00:43:23.366Z,11.70
2023-04-15T00:46:17.334Z,11.67
2023-04-15T00:49:09.737Z,11.63
2023-04-15T00:52:01.776Z,11.61
2023-04-15T00:54:53.819Z,11.58
2023-04-15T00:57:47.566Z,11.57
2023-04-15T01:00:24.702Z,11.56
2023-04-15T01:03:16.733Z,11.55
2023-04-15T01:05:58.294Z,11.56
2023-04-15T01:08:50.598Z,11.56
2023-04-15T01:11:43.189Z,11.56
2023-04-15T01:14:36.361Z,11.57
2023-04-15T01:17:28.328Z,11.57
2023-04-15T01:20:12.198Z,11.57
2023-04-15T01:23:04.983Z,11.55
2023-04-15T01:25:58.499Z,11.53
2023-04-15T01:28:50.648Z,11.53
2023-04-15T01:31:43.446Z,11.54
2023-04-15T01:34:35.870Z,11.56
2023-04-15T01:37:17.097Z,11.56
2023-04-15T01:40:10.796Z,11.52
2023-04-15T01:42:45.684Z,11.48
2023-04-15T01:45:37.668Z,11.45
2023-04-15T01:48:29.740Z,11.44
2023-04-15T01:51:21.974Z,11.44
2023-04-15T01:54:14.009Z,11.43
2023-04-15T01:57:05.974Z,11.41
2023-04-15T01:59:58.015Z,11.40
2023-04-15T02:02:35.988Z,11.40
2023-04-15T02:05:28.333Z,11.39
2023-04-15T02:08:03.808Z,11.37
2023-04-15T02:10:45.704Z,11.36
2023-04-15T02:13:37.834Z,11.33
2023-04-15T02:16:29.888Z,11.30
2023-04-15T02:19:22.116Z,11.26
2023-04-15T02:22:18.937Z,11.24
2023-04-15T02:25:12.632Z,11.21
2023-04-15T02:28:04.727Z,11.18
2023-04-15T02:30:59.193Z,11.15
2023-04-15T02:33:51.166Z,11.14
2023-04-15T02:36:43.160Z,11.13
2023-04-15T02:39:18.619Z,11.13
2023-04-15T02:41:55.551Z,11.13
2023-04-15T02:44:47.544Z,11.14
2023-04-15T02:47:41.354Z,11.11
2023-04-15T02:50:33.477Z,11.09
2023-04-15T02:53:26.023Z,11.04
2023-04-15T02:56:19.432Z,11.00
2023-04-15T02:59:10.071Z,10.97
2023-04-15T03:02:02.120Z,10.95
2023-04-15T03:04:54.216Z,10.92
2023-04-15T03:07:46.171Z,10.88
2023-04-15T03:10:38.136Z,10.83
2023-04-15T03:13:12.216Z,10.80
2023-04-15T03:15:49.109Z,10.77
2023-04-15T03:18:41.258Z,10.73
2023-04-15T03:21:33.321Z,10.71
2023-04-15T03:24:25.814Z,10.69
2023-04-15T03:27:08.558Z,10.66
2023-04-15T03:30:00.483Z,10.63
2023-04-15T03:32:52.520Z,10.60
2023-04-15T03:35:29.485Z,10.55
2023-04-15T03:38:21.587Z,10.52
2023-04-15T03:41:13.903Z,10.48
2023-04-15T03:43:52.113Z,10.44
2023-04-15T03:46:29.288Z,10.41
2023-04-15T03:49:23.017Z,10.37
2023-04-15T03:52:14.981Z,10.34
2023-04-15T03:55:08.460Z,10.31
2023-04-15T03:58:00.425Z,10.27
2023-04-15T04:00:52.467Z,10.22
2023-04-15T04:03:34.820Z,10.20
2023-04-15T04:06:27.415Z,10.17
2023-04-15T04:09:19.403Z,10.15
2023-04-15T04:12:11.441Z,10.13
2023-04-15T04:14:43.339Z,10.11
2023-04-15T04:17:15.105Z,10.11
2023-04-15T04:20:08.432Z,10.10
2023-04-15T04:23:00.445Z,10.10
2023-04-15T04:25:52.647Z,10.10
2023-04-15T04:28:44.650Z,10.10
2023-04-15T04:31:37.061Z,10.11
2023-04-15T04:34:29.083Z,10.12
2023-04-15T04:37:21.237Z,10.14
2023-04-15T04:40:14.900Z,10.17
2023-04-15T04:43:06.877Z,10.19
2023-04-15T04:45:58.960Z,10.21
2023-04-15T04:48:50.992Z,10.23
2023-04-15T04:51:43.036Z,10.26
2023-04-15T04:54:35.072Z,10.29
2023-04-15T04:57:27.153Z,10.35
2023-04-15T05:00:19.515Z,10.40
2023-04-15T05:03:11.818Z,10.46
2023-04-15T05:06:06.179Z,10.51
2023-04-15T05:08:58.148Z,10.58
2023-04-15T05:11:50.450Z,10.63
2023-04-15T05:14:42.997Z,10.70
2023-04-15T05:17:35.356Z,10.76
2023-04-15T05:20:27.412Z,10.81
2023-04-15T05:23:19.489Z,10.86
2023-04-15T05:26:11.462Z,10.91
2023-04-15T05:29:03.542Z,10.96
2023-04-15T05:31:55.942Z,11.01
2023-04-15T05:34:48.105Z,11.06
2023-04-15T05:37:20.897Z,11.11
2023-04-15T05:40:13.635Z,11.18
2023-04-15T05:43:05.615Z,11.23
2023-04-15T05:45:57.624Z,11.27
2023-04-15T05:48:49.624Z,11.32
2023-04-15T05:51:30.154Z,11.37
2023-04-15T05:54:04.589Z,11.40
2023-04-15T05:56:46.042Z,11.45
2023-04-15T05:59:38.873Z,11.49
2023-04-15T06:02:31.434Z,11.60
2023-04-15T06:05:24.156Z,11.75
2023-04-15T06:08:16.127Z,11.93
2023-04-15T06:11:08.290Z,12.17
2023-04-15T06:14:00.532Z,12.39
2023-04-15T06:16:32.487Z,12.57
2023-04-15T06:19:24.608Z,12.72
2023-04-15T06:22:16.695Z,12.84
2023-04-15T06:25:10.957Z,12.97
2023-04-15T06:28:03.035Z,13.10
2023-04-15T06:30:55.639Z,13.25
2023-04-15T06:33:47.688Z,13.36
2023-04-15T06:36:39.667Z,13.46
2023-04-15T06:39:14.774Z,13.57
2023-04-15T06:42:06.767Z,13.74
2023-04-15T06:44:42.110Z,13.97
2023-04-15T06:47:34.197Z,14.18
2023-04-15T06:50:26.272Z,14.33
2023-04-15T06:52:58.617Z,14.43
2023-04-15T06:55:31.574Z,14.52
2023-04-15T06:58:23.739Z,14.60
2023-04-15T07:01:15.926Z,14.66
2023-04-15T07:03:58.727Z,14.76
2023-04-15T07:06:50.808Z,14.87
2023-04-15T07:09:42.955Z,14.96
2023-04-15T07:12:35.888Z,15.05
2023-04-15T07:15:27.934Z,15.13
2023-04-15T07:18:19.982Z,15.22
2023-04-15T07:21:12.630Z,15.31
2023-04-15T07:24:04.715Z,15.36
2023-04-15T07:26:59.406Z,15.36
2023-04-15T07:29:53.152Z,15.44
2023-04-15T07:32:45.644Z,15.55
2023-04-15T07:35:37.873Z,15.53
2023-04-15T07:38:29.999Z,15.57
2023-04-15T07:41:22.447Z,15.63
2023-04-15T07:44:14.659Z,15.72
2023-04-15T07:47:06.810Z,15.84
2023-04-15T07:49:58.841Z,16.02
2023-04-15T07:52:52.095Z,16.18
2023-04-15T07:55:44.085Z,16.29
2023-04-15T07:58:36.114Z,16.50
2023-04-15T08:01:28.057Z,16.71
2023-04-15T08:04:20.361Z,16.91
2023-04-15T08:06:55.094Z,17.10
2023-04-15T08:09:47.524Z,17.30
2023-04-15T08:12:39.503Z,17.45
2023-04-15T08:15:33.017Z,17.54
2023-04-15T08:18:25.199Z,18.18
2023-04-15T08:21:17.662Z,19.42
2023-04-15T08:24:11.562Z,20.06
2023-04-15T08:27:04.735Z,20.58
2023-04-15T08:29:57.086Z,21.19
2023-04-15T08:32:50.481Z,21.58
2023-04-15T08:35:31.563Z,21.51
2023-04-15T08:38:23.746Z,21.50
2023-04-15T08:41:26.200Z,21.51
2023-04-15T08:44:20.157Z,21.22
2023-04-15T08:47:15.795Z,20.97
2023-04-15T08:50:11.929Z,20.82
2023-04-15T08:52:46.376Z,20.88
2023-04-15T08:55:43.378Z,21.82
2023-04-15T08:58:36.691Z,22.31
2023-04-15T09:01:29.164Z,23.01
2023-04-15T09:04:21.600Z,23.54
2023-04-15T09:07:13.604Z,23.36
2023-04-15T09:10:06.707Z,22.90
2023-04-15T09:13:00.055Z,22.23
2023-04-15T09:15:52.129Z,21.70
2023-04-15T09:18:44.378Z,21.27
2023-04-15T09:21:36.895Z,20.89
2023-04-15T09:24:11.034Z,20.62
2023-04-15T09:27:03.626Z,20.38
2023-04-15T09:29:56.217Z,20.16
2023-04-15T09:32:53.175Z,19.97
2023-04-15T09:35:33.991Z,19.76
2023-04-15T09:38:26.224Z,19.59
2023-04-15T09:41:20.816Z,19.47
2023-04-15T09:43:57.781Z,19.35
2023-04-15T09:46:49.713Z,19.28
2023-04-15T09:49:56.516Z,19.59
2023-04-15T09:52:44.469Z,19.91
2023-04-15T09:55:36.608Z,20.45
2023-04-15T09:58:30.065Z,21.61
2023-04-15T10:01:22.194Z,23.09
2023-04-15T10:04:14.919Z,24.15
2023-04-15T10:07:09.589Z,24.39
2023-04-15T10:09:51.941Z,24.14
2023-04-15T10:12:45.004Z,23.65
2023-04-15T10:15:37.161Z,23.64
2023-04-15T10:18:30.257Z,24.04
2023-04-15T10:21:19.404Z,23.85
2023-04-15T10:24:12.031Z,23.57
2023-04-15T10:26:55.455Z,23.25
2023-04-15T10:29:48.815Z,22.96
2023-04-15T10:32:41.867Z,22.75
2023-04-15T10:35:35.075Z,22.54
2023-04-15T10:38:38.560Z,22.27
2023-04-15T10:41:20.140Z,22.01
2023-04-15T10:44:12.907Z,21.81
2023-04-15T10:47:12.184Z,21.62
2023-04-15T10:50:04.805Z,21.39
2023-04-15T10:52:57.518Z,21.17
2023-04-15T10:55:49.848Z,20.94
2023-04-15T10:58:45.886Z,20.77
2023-04-15T11:02:00.056Z,20.56
2023-04-15T11:04:57.518Z,20.36
2023-04-15T11:07:54.878Z,20.20
2023-04-15T11:10:56.796Z,20.07
2023-04-15T11:13:34.270Z,19.98
2023-04-15T11:16:26.363Z,19.96
2023-04-15T11:19:18.538Z,20.01
2023-04-15T11:22:12.319Z,20.15
2023-04-15T11:25:04.421Z,20.03
2023-04-15T11:27:57.705Z,19.90
2023-04-15T11:30:49.827Z,19.85
2023-04-15T11:33:48.054Z,19.78
2023-04-15T11:36:40.236Z,19.67
2023-04-15T11:39:16.395Z,19.60
2023-04-15T11:42:19.631Z,19.53
2023-04-15T11:45:12.615Z,19.32
2023-04-15T11:47:50.353Z,19.20
2023-04-15T11:50:42.966Z,19.12
2023-04-15T11:53:42.863Z,19.03
2023-04-15T11:56:34.891Z,18.89
2023-04-15T11:59:38.984Z,18.88
2023-04-15T12:02:19.613Z,18.88
2023-04-15T12:06:00.745Z,18.79
2023-04-15T12:09:00.163Z,18.65
2023-04-15T12:11:53.877Z,18.60
2023-04-15T12:14:45.957Z,18.66
2023-04-15T12:17:51.740Z,18.71
2023-04-15T12:20:48.683Z,18.74
2023-04-15T12:23:23.544Z,18.73
2023-04-15T12:25:58.196Z,18.61
2023-04-15T12:28:50.189Z,18.52
2023-04-15T12:31:50.630Z,18.51
2023-04-15T12:34:44.614Z,18.53
2023-04-15T12:37:36.675Z,18.48
2023-04-15T12:40:28.682Z,18.51
2023-04-15T12:43:00.798Z,18.58
2023-04-15T12:45:34.948Z,18.66
2023-04-15T12:48:26.975Z,18.80
2023-04-15T12:51:18.918Z,18.88
2023-04-15T12:54:10.928Z,18.87
2023-04-15T12:57:05.948Z,18.91
2023-04-15T12:59:59.067Z,18.95
2023-04-15T13:02:51.230Z,19.03
2023-04-15T13:05:43.506Z,19.10
2023-04-15T13:08:36.941Z,19.05
2023-04-15T13:11:24.237Z,18.98
2023-04-15T13:14:16.330Z,18.98
2023-04-15T13:17:10.254Z,18.94
2023-04-15T13:20:02.203Z,18.80
2023-04-15T13:22:56.004Z,18.75
2023-04-15T13:25:38.393Z,18.81
2023-04-15T13:28:30.439Z,18.79
2023-04-15T13:31:09.669Z,18.66
2023-04-15T13:33:50.733Z,18.51
2023-04-15T13:36:42.758Z,18.35
2023-04-15T13:39:23.815Z,18.18
2023-04-15T13:42:04.230Z,18.02
2023-04-15T13:44:56.233Z,17.83
2023-04-15T13:47:36.910Z,17.65
2023-04-15T13:50:29.070Z,17.53
2023-04-15T13:53:06.172Z,17.46
2023-04-15T13:55:48.282Z,17.45
2023-04-15T13:58:41.896Z,17.46
2023-04-15T14:01:33.975Z,17.44
2023-04-15T14:04:26.381Z,17.34
2023-04-15T14:07:18.484Z,17.28
2023-04-15T14:09:52.898Z,17.25
2023-04-15T14:12:44.933Z,17.10
2023-04-15T14:15:37.057Z,16.99
2023-04-15T14:18:11.883Z,16.87
2023-04-15T14:21:03.863Z,16.73
2023-04-15T14:23:55.941Z,16.60
2023-04-15T14:26:30.994Z,16.58
2023-04-15T14:29:06.306Z,16.54
2023-04-15T14:32:08.548Z,16.41
2023-04-15T14:34:53.773Z,16.34
2023-04-15T14:37:35.292Z,16.31
2023-04-15T14:40:27.227Z,16.32
2023-04-15T14:43:19.214Z,16.36
2023-04-15T14:46:00.232Z,16.39
2023-04-15T14:48:52.545Z,16.40
2023-04-15T14:51:46.251Z,16.43
2023-04-15T14:54:41.105Z,16.40
2023-04-15T14:57:18.170Z,16.37
2023-04-15T15:00:15.294Z,16.34
2023-04-15T15:03:12.651Z,16.31
2023-04-15T15:06:05.344Z,16.25
2023-04-15T15:08:57.365Z,16.23
2023-04-15T15:11:49.327Z,16.19
2023-04-15T15:14:41.754Z,16.14
2023-04-15T15:17:24.836Z,16.09
2023-04-15T15:20:17.814Z,16.06
2023-04-15T15:23:09.787Z,16.03
2023-04-15T15:25:45.091Z,16.04
2023-04-15T15:28:37.202Z,16.05
2023-04-15T15:31:29.256Z,16.11
2023-04-15T15:34:01.103Z,16.14
2023-04-15T15:36:43.113Z,16.17
2023-04-15T15:39:35.181Z,16.18
2023-04-15T15:42:27.649Z,16.20
2023-04-15T15:45:19.953Z,16.24
2023-04-15T15:48:12.063Z,16.28
2023-04-15T15:50:46.920Z,16.33
2023-04-15T15:53:27.848Z,16.36
2023-04-15T15:56:20.085Z,16.37
2023-04-15T15:59:12.102Z,16.36
2023-04-15T16:01:44.048Z,16.37
2023-04-15T16:04:36.405Z,16.38
2023-04-15T16:07:28.601Z,16.34
2023-04-15T16:10:00.542Z,16.29
2023-04-15T16:12:52.542Z,16.22
2023-04-15T16:15:44.534Z,16.15
2023-04-15T16:18:36.454Z,16.07
2023-04-15T16:21:11.384Z,16.03
2023-04-15T16:24:04.200Z,15.99
2023-04-15T16:26:58.434Z,15.94
2023-04-15T16:29:34.366Z,15.89
2023-04-15T16:32:26.454Z,15.86
2023-04-15T16:35:18.536Z,15.86
2023-04-15T16:38:10.541Z,15.85
2023-04-15T16:40:42.535Z,15.82
2023-04-15T16:43:17.311Z,15.82
2023-04-15T16:46:09.581Z,15.81
2023-04-15T16:49:01.830Z,15.79
2023-04-15T16:51:54.733Z,15.76
2023-04-15T16:54:46.821Z,15.72
2023-04-15T16:58:00.893Z,15.69
2023-04-15T17:00:51.184Z,15.67
2023-04-15T17:03:43.383Z,15.62
2023-04-15T17:06:35.716Z,15.60
2023-04-15T17:09:27.978Z,15.56
2023-04-15T17:12:20.228Z,15.53
2023-04-15T17:15:13.111Z,15.53
2023-04-15T17:18:05.176Z,15.50
2023-04-15T17:20:57.532Z,15.42
2023-04-15T17:23:49.582Z,15.35
2023-04-15T17:26:41.764Z,15.25
2023-04-15T17:29:33.872Z,15.09
2023-04-15T17:32:30.633Z,14.89
2023-04-15T17:35:23.409Z,14.71
2023-04-15T17:38:15.522Z,14.57
2023-04-15T17:41:08.389Z,14.43
2023-04-15T17:44:00.567Z,14.33
2023-04-15T17:46:52.578Z,14.23
2023-04-15T17:49:44.632Z,14.10
2023-04-15T17:52:36.644Z,13.99
2023-04-15T17:55:28.860Z,13.91
2023-04-15T17:58:21.307Z,13.81
2023-04-15T18:01:13.539Z,13.68
2023-04-15T18:04:06.466Z,13.60
2023-04-15T18:06:58.796Z,13.47
2023-04-15T18:09:51.605Z,13.39
2023-04-15T18:12:43.933Z,13.34
2023-04-15T18:15:36.078Z,13.28
2023-04-15T18:18:28.975Z,13.20
2023-04-15T18:21:21.300Z,13.11
2023-04-15T18:24:13.824Z,13.05
2023-04-15T18:27:06.288Z,13.03
2023-04-15T18:29:58.639Z,13.01
2023-04-15T18:32:32.532Z,12.98
2023-04-15T18:35:24.696Z,12.94
2023-04-15T18:38:16.697Z,12.91
2023-04-15T18:41:10.060Z,12.90
2023-04-15T18:44:02.216Z,12.85
2023-04-15T18:46:54.273Z,12.80
2023-04-15T18:49:46.520Z,12.76
2023-04-15T18:52:38.586Z,12.75
2023-04-15T18:55:31.313Z,12.73
2023-04-15T18:58:23.331Z,12.72
2023-04-15T19:01:03.974Z,12.72
2023-04-15T19:03:56.290Z,12.72
2023-04-15T19:06:28.611Z,12.70
2023-04-15T19:09:20.618Z,12.66
2023-04-15T19:12:12.626Z,12.61
2023-04-15T19:15:04.789Z,12.57
2023-04-15T19:17:48.134Z,12.54
2023-04-15T19:20:28.883Z,12.53
2023-04-15T19:23:06.108Z,12.52
2023-04-15T19:25:58.915Z,12.52
2023-04-15T19:28:36.440Z,12.50
2023-04-15T19:31:28.721Z,12.49
2023-04-15T19:34:21.289Z,12.47
2023-04-15T19:37:14.643Z,12.47
2023-04-15T19:40:08.600Z,12.46
2023-04-15T19:43:00.805Z,12.43
2023-04-15T19:45:54.645Z,12.42
2023-04-15T19:48:32.631Z,12.40
2023-04-15T19:51:24.668Z,12.38
2023-04-15T19:54:16.840Z,12.27
2023-04-15T19:57:08.963Z,12.16
2023-04-15T20:00:01.119Z,12.08
2023-04-15T20:02:53.201Z,12.07
2023-04-15T20:05:45.424Z,12.03
2023-04-15T20:08:37.787Z,12.01
2023-04-15T20:11:18.505Z,12.01
2023-04-15T20:14:10.575Z,12.01
2023-04-15T20:17:02.658Z,12.00
2023-04-15T20:19:54.608Z,11.97
2023-04-15T20:22:46.812Z,11.94
2023-04-15T20:25:38.851Z,11.91
2023-04-15T20:28:30.944Z,11.89
2023-04-15T20:31:23.704Z,11.86
2023-04-15T20:34:15.767Z,11.83
2023-04-15T20:37:08.267Z,11.80
2023-04-15T20:40:00.639Z,11.76
2023-04-15T20:42:43.648Z,11.71
2023-04-15T20:45:35.685Z,11.64
2023-04-15T20:48:27.678Z,11.60
2023-04-15T20:51:19.711Z,11.52
2023-04-15T20:54:11.803Z,11.47
2023-04-15T20:57:03.983Z,11.40
2023-04-15T20:59:55.966Z,11.37
2023-04-15T21:02:48.088Z,11.30
2023-04-15T21:05:40.173Z,11.25
2023-04-15T21:08:32.308Z,11.19
2023-04-15T21:11:43.007Z,11.13
2023-04-15T21:14:36.999Z,11.10
2023-04-15T21:17:29.108Z,11.06
2023-04-15T21:20:21.569Z,11.02
2023-04-15T21:23:13.504Z,10.98
2023-04-15T21:26:05.728Z,10.94
2023-04-15T21:28:57.661Z,10.90
2023-04-15T21:31:38.222Z,10.85
2023-04-15T21:34:22.202Z,10.83
2023-04-15T21:36:56.370Z,10.82
2023-04-15T21:39:48.335Z,10.80
2023-04-15T21:42:41.628Z,10.79
2023-04-15T21:45:33.568Z,10.81
2023-04-15T21:48:14.501Z,10.83
2023-04-15T21:51:06.908Z,10.84
2023-04-15T21:53:59.028Z,10.86
2023-04-15T21:56:51.038Z,10.91
2023-04-15T21:59:42.998Z,10.92
2023-04-15T22:02:37.621Z,10.92
2023-04-15T22:05:29.738Z,10.93
2023-04-15T22:08:21.639Z,10.92
2023-04-15T22:11:23.053Z,10.93
2023-04-15T22:14:15.124Z,10.94
2023-04-15T22:17:07.192Z,10.92
2023-04-15T22:19:59.174Z,10.89
2023-04-15T22:22:44.362Z,10.87
2023-04-15T22:25:36.854Z,10.85
2023-04-15T22:28:28.765Z,10.82
2023-04-15T22:31:20.771Z,10.73
2023-04-15T22:34:14.777Z,10.64
2023-04-15T22:37:06.951Z,10.57
2023-04-15T22:39:59.383Z,10.53
2023-04-15T22:42:51.504Z,10.52
2023-04-15T22:45:43.511Z,10.49
2023-04-15T22:48:35.658Z,10.43
2023-04-15T22:51:28.087Z,10.38
2023-04-15T22:54:20.097Z,10.33
2023-04-15T22:57:12.043Z,10.27
2023-04-15T23:00:05.694Z,10.20
2023-04-15T23:02:57.836Z,10.16
2023-04-15T23:05:50.026Z,10.10
2023-04-15T23:08:42.044Z,10.07
2023-04-15T23:11:34.062Z,10.03
2023-04-15T23:14:28.367Z,9.97
2023-04-15T23:17:20.405Z,9.90
2023-04-15T23:20:15.682Z,9.87
2023-04-15T23:23:06.533Z,9.84
2023-04-15T23:25:58.529Z,9.79
2023-04-15T23:28:50.650Z,9.76
2023-04-15T23:31:42.848Z,9.72
2023-04-15T23:34:17.551Z,9.66
2023-04-15T23:37:09.667Z,9.61
2023-04-15T23:40:01.729Z,9.58
2023-04-15T23:42:53.725Z,9.58
2023-04-15T23:45:45.718Z,9.54
2023-04-15T23:48:23.552Z,9.50
2023-04-15T23:51:15.662Z,9.45
2023-04-15T23:54:07.817Z,9.41
2023-04-15T23:56:46.142Z,9.37
2023-04-15T23:59:38.121Z,9.33
